createdAt,value
2023-05-16T00:02:16.211Z,14.17
2023-05-16T00:04:42.709Z,14.26
2023-05-16T00:07:09.183Z,14.30
2023-05-16T00:09:35.642Z,14.12
2023-05-16T00:12:02.080Z,14.23
2023-05-16T00:14:28.951Z,14.18
2023-05-16T00:16:57.660Z,14.29
2023-05-16T00:19:24.260Z,14.27
2023-05-16T00:21:51.128Z,14.18
2023-05-16T00:24:17.599Z,14.29
2023-05-16T00:26:44.183Z,14.24
2023-05-16T00:29:10.647Z,14.27
2023-05-16T00:31:37.123Z,14.19
2023-05-16T00:34:03.590Z,14.22
2023-05-16T00:36:31.687Z,14.14
2023-05-16T00:38:58.105Z,14.20
2023-05-16T00:41:25.388Z,14.05
2023-05-16T00:43:51.848Z,14.11
2023-05-16T00:46:18.327Z,14.17
2023-05-16T00:48:45.102Z,14.17
2023-05-16T00:51:11.648Z,13.87
2023-05-16T00:53:38.060Z,14.03
2023-05-16T00:56:06.729Z,13.96
2023-05-16T00:58:33.929Z,13.99
2023-05-16T01:01:03.582Z,13.87
2023-05-16T01:03:30.358Z,13.63
2023-05-16T01:05:57.950Z,13.57
2023-05-16T01:08:24.348Z,13.70
2023-05-16T01:11:02.646Z,13.74
2023-05-16T01:13:58.511Z,13.58
2023-05-16T01:17:00.180Z,13.54
2023-05-16T01:19:56.123Z,13.44
2023-05-16T01:22:42.339Z,13.49
2023-05-16T01:25:32.861Z,13.59
2023-05-16T01:27:59.613Z,13.39
2023-05-16T01:30:26.028Z,13.44
2023-05-16T01:32:52.675Z,13.27
2023-05-16T01:35:19.252Z,13.20
2023-05-16T01:37:58.752Z,13.23
2023-05-16T01:40:45.870Z,13.25
2023-05-16T01:43:17.029Z,13.18
2023-05-16T01:45:51.038Z,13.04
2023-05-16T01:48:22.615Z,12.97
2023-05-16T01:50:55.925Z,13.00
2023-05-16T01:53:33.299Z,13.02
2023-05-16T01:56:02.176Z,13.01
2023-05-16T01:58:32.967Z,13.05
2023-05-16T02:01:03.976Z,12.98
2023-05-16T02:03:34.193Z,12.86
2023-05-16T02:06:01.034Z,12.86
2023-05-16T02:08:28.676Z,12.64
2023-05-16T02:10:55.069Z,12.87
2023-05-16T02:13:21.466Z,12.81
2023-05-16T02:15:47.873Z,12.96
2023-05-16T02:18:14.399Z,12.87
2023-05-16T02:20:42.668Z,12.89
2023-05-16T02:23:09.100Z,12.75
2023-05-16T02:25:35.552Z,12.87
2023-05-16T02:28:01.967Z,12.66
2023-05-16T02:30:28.392Z,12.69
2023-05-16T02:32:55.072Z,12.67
2023-05-16T02:35:21.621Z,12.57
2023-05-16T02:37:48.019Z,12.52
2023-05-16T02:40:14.428Z,12.45
2023-05-16T02:42:40.909Z,12.51
2023-05-16T02:45:07.791Z,12.26
2023-05-16T02:47:34.252Z,12.45
2023-05-16T02:50:00.694Z,12.51
2023-05-16T02:52:27.099Z,12.65
2023-05-16T02:57:22.877Z,12.51
2023-05-16T02:59:49.306Z,12.47
2023-05-16T03:02:15.721Z,12.29
2023-05-16T03:04:42.124Z,12.30
2023-05-16T03:07:08.532Z,12.45
2023-05-16T03:09:34.968Z,12.34
2023-05-16T03:12:01.587Z,12.23
2023-05-16T03:14:28.013Z,12.26
2023-05-16T03:16:54.422Z,12.34
2023-05-16T03:19:20.926Z,12.43
2023-05-16T03:21:47.398Z,12.19
2023-05-16T03:24:13.881Z,12.21
2023-05-16T03:26:42.994Z,12.19
2023-05-16T03:29:09.965Z,12.28
2023-05-16T03:31:37.004Z,12.23
2023-05-16T03:34:03.836Z,12.07
2023-05-16T03:36:30.531Z,12.14
2023-05-16T03:38:56.977Z,12.10
2023-05-16T03:41:23.405Z,12.16
2023-05-16T03:43:49.935Z,12.16
2023-05-16T03:46:16.358Z,12.26
2023-05-16T03:48:42.802Z,12.30
2023-05-16T03:51:09.211Z,12.00
2023-05-16T03:53:37.089Z,12.12
2023-05-16T03:56:03.950Z,12.16
2023-05-16T03:58:30.658Z,11.98
2023-05-16T04:00:57.438Z,11.95
2023-05-16T04:03:28.372Z,11.87
2023-05-16T04:05:56.110Z,11.94
2023-05-16T04:08:22.627Z,11.95
2023-05-16T04:10:49.058Z,11.90
2023-05-16T04:13:16.163Z,11.86
2023-05-16T04:15:42.607Z,11.81
2023-05-16T04:18:09.540Z,11.81
2023-05-16T04:20:36.674Z,11.73
2023-05-16T04:23:03.090Z,11.75
2023-05-16T04:25:29.847Z,11.63
2023-05-16T04:27:57.226Z,11.79
2023-05-16T04:30:23.673Z,11.72
2023-05-16T04:32:50.121Z,11.69
2023-05-16T04:35:16.591Z,11.65
2023-05-16T04:37:43.017Z,11.66
2023-05-16T04:40:09.915Z,11.66
2023-05-16T04:42:36.520Z,11.68
2023-05-16T04:45:04.055Z,11.74
2023-05-16T04:47:31.418Z,11.76
2023-05-16T04:49:57.860Z,11.78
2023-05-16T04:52:24.289Z,11.82
2023-05-16T04:54:52.270Z,11.82
2023-05-16T04:57:18.681Z,11.84
2023-05-16T04:59:45.098Z,11.91
2023-05-16T05:02:11.648Z,11.69
2023-05-16T05:04:38.189Z,11.73
2023-05-16T05:07:04.883Z,11.73
2023-05-16T05:09:31.302Z,11.69
2023-05-16T05:11:57.711Z,11.72
2023-05-16T05:14:24.220Z,11.70
2023-05-16T05:16:50.675Z,11.68
2023-05-16T05:19:17.746Z,11.62
2023-05-16T05:21:44.237Z,11.69
2023-05-16T05:24:11.415Z,11.86
2023-05-16T05:26:37.909Z,11.79
2023-05-16T05:29:06.021Z,11.86
2023-05-16T05:31:34.716Z,11.82
2023-05-16T05:34:01.418Z,11.76
2023-05-16T05:36:27.940Z,11.88
2023-05-16T05:38:54.387Z,11.92
2023-05-16T05:41:22.315Z,11.96
2023-05-16T05:43:49.118Z,11.99
2023-05-16T05:46:16.882Z,11.80
2023-05-16T05:48:43.618Z,11.88
2023-05-16T05:51:10.151Z,11.83
2023-05-16T05:53:36.821Z,11.97
2023-05-16T05:56:03.277Z,11.93
2023-05-16T05:58:29.726Z,11.90
2023-05-16T06:00:56.421Z,12.06
2023-05-16T06:03:23.166Z,11.78
2023-05-16T06:05:49.728Z,11.91
2023-05-16T06:08:16.153Z,12.07
2023-05-16T06:10:42.575Z,12.20
2023-05-16T06:13:09.076Z,11.96
2023-05-16T06:15:35.490Z,11.89
2023-05-16T06:18:02.103Z,11.85
2023-05-16T06:20:28.563Z,11.84
2023-05-16T06:22:54.987Z,12.00
2023-05-16T06:25:21.483Z,11.78
2023-05-16T06:27:47.873Z,11.74
2023-05-16T06:30:14.334Z,11.89
2023-05-16T06:32:41.457Z,11.93
2023-05-16T06:35:09.345Z,11.97
2023-05-16T06:37:35.967Z,11.89
2023-05-16T06:40:02.397Z,11.91
2023-05-16T06:42:28.848Z,11.89
2023-05-16T06:44:55.311Z,11.91
2023-05-16T06:47:21.874Z,12.13
2023-05-16T06:49:48.317Z,12.14
2023-05-16T06:52:14.819Z,12.20
2023-05-16T06:54:41.326Z,12.14
2023-05-16T06:57:08.594Z,12.21
2023-05-16T06:59:35.878Z,12.17
2023-05-16T07:02:02.662Z,12.24
2023-05-16T07:04:29.192Z,12.12
2023-05-16T07:06:55.711Z,12.01
2023-05-16T07:09:22.170Z,12.06
2023-05-16T07:11:48.627Z,12.31
2023-05-16T07:14:15.077Z,12.25
2023-05-16T07:16:41.748Z,12.23
2023-05-16T07:19:08.616Z,12.01
2023-05-16T07:21:35.126Z,12.11
2023-05-16T07:24:01.783Z,12.36
2023-05-16T07:26:28.274Z,12.46
2023-05-16T07:28:55.265Z,12.47
2023-05-16T07:31:21.845Z,12.55
2023-05-16T07:33:49.165Z,12.69
2023-05-16T07:36:17.545Z,12.37
2023-05-16T07:38:44.801Z,12.44
2023-05-16T07:41:11.552Z,12.33
2023-05-16T07:43:38.041Z,12.26
2023-05-16T07:46:05.092Z,12.25
2023-05-16T07:48:31.678Z,12.35
2023-05-16T07:50:58.215Z,12.53
2023-05-16T07:53:24.856Z,12.34
2023-05-16T07:55:51.545Z,12.46
2023-05-16T07:58:18.035Z,12.58
2023-05-16T08:00:44.533Z,12.69
2023-05-16T08:03:11.217Z,12.51
2023-05-16T08:05:37.786Z,12.57
2023-05-16T08:08:04.388Z,12.58
2023-05-16T08:10:31.131Z,12.47
2023-05-16T08:12:57.596Z,12.51
2023-05-16T08:15:24.145Z,12.54
2023-05-16T08:17:51.094Z,12.72
2023-05-16T08:20:17.577Z,12.76
2023-05-16T08:22:44.051Z,12.59
2023-05-16T08:25:10.668Z,12.60
2023-05-16T08:27:37.110Z,12.74
2023-05-16T08:30:03.773Z,12.84
2023-05-16T08:32:30.355Z,12.81
2023-05-16T08:34:56.933Z,12.65
2023-05-16T08:37:23.383Z,12.88
2023-05-16T08:39:49.898Z,12.96
2023-05-16T08:42:16.398Z,12.80
2023-05-16T08:44:42.910Z,12.78
2023-05-16T08:47:18.094Z,12.77
2023-05-16T08:49:48.185Z,12.82
2023-05-16T08:52:19.176Z,12.76
2023-05-16T08:54:50.370Z,12.75
2023-05-16T08:57:22.009Z,12.88
2023-05-16T08:59:49.228Z,12.92
2023-05-16T09:02:15.963Z,12.87
2023-05-16T09:04:43.279Z,12.82
2023-05-16T09:07:09.966Z,12.78
2023-05-16T09:09:36.392Z,12.93
2023-05-16T17:33:14.158Z,15.85
2023-05-16T17:35:41.043Z,16.14
2023-05-16T17:38:07.507Z,16.23
2023-05-16T17:40:33.936Z,16.24
2023-05-16T17:43:00.385Z,16.25
2023-05-16T17:45:27.168Z,16.11
2023-05-16T17:47:53.919Z,16.09
2023-05-16T17:50:21.766Z,16.10
2023-05-16T17:52:48.326Z,16.02
2023-05-16T17:55:14.808Z,16.00
2023-05-16T17:57:41.341Z,16.05
2023-05-16T18:00:09.226Z,16.08
2023-05-16T18:02:38.731Z,16.13
2023-05-16T18:05:05.747Z,15.94
2023-05-16T18:07:32.290Z,15.94
2023-05-16T18:09:58.944Z,15.80
2023-05-16T18:12:25.396Z,15.83
2023-05-16T18:14:51.843Z,15.68
2023-05-16T18:17:18.383Z,15.59
2023-05-16T18:19:45.008Z,15.59
2023-05-16T18:22:13.137Z,15.36
2023-05-16T18:24:39.971Z,15.35
2023-05-16T18:27:06.520Z,15.39
2023-05-16T18:29:32.999Z,15.22
2023-05-16T18:32:00.060Z,15.38
2023-05-16T18:34:26.530Z,15.28
2023-05-16T18:36:52.963Z,15.11
2023-05-16T18:39:20.356Z,15.22
2023-05-16T18:41:48.293Z,14.97
2023-05-16T18:44:17.268Z,14.97
2023-05-16T18:46:45.952Z,14.96
2023-05-16T18:49:13.338Z,14.85
2023-05-16T18:51:39.839Z,14.78
2023-05-16T18:54:06.353Z,14.67
2023-05-16T18:56:32.992Z,14.66
2023-05-16T18:58:59.458Z,14.58
2023-05-16T19:01:25.956Z,14.59
2023-05-16T19:03:52.608Z,14.59
2023-05-16T19:06:19.173Z,14.49
2023-05-16T19:08:48.076Z,14.40
2023-05-16T19:11:16.387Z,14.43
2023-05-16T19:13:42.878Z,14.38
2023-05-16T19:16:09.470Z,14.17
2023-05-16T19:18:37.063Z,14.15
2023-05-16T19:21:03.704Z,14.09
2023-05-16T19:23:30.326Z,14.02
2023-05-16T19:25:57.213Z,13.86
2023-05-16T19:28:24.642Z,13.76
2023-05-16T19:30:51.301Z,13.62
2023-05-16T19:33:17.870Z,13.61
2023-05-16T19:35:44.313Z,13.55
2023-05-16T19:38:10.914Z,13.50
2023-05-16T19:40:37.388Z,13.34
2023-05-16T19:43:03.837Z,13.46
2023-05-16T19:45:30.625Z,13.33
2023-05-16T19:47:57.375Z,13.24
2023-05-16T19:50:23.933Z,13.13
2023-05-16T19:52:50.395Z,13.08
2023-05-16T19:55:16.841Z,13.10
2023-05-16T19:57:43.294Z,13.11
2023-05-16T20:00:10.593Z,13.14
2023-05-16T20:02:39.772Z,13.13
2023-05-16T20:05:06.865Z,12.96
2023-05-16T20:07:33.432Z,12.92
2023-05-16T20:09:59.912Z,12.89
2023-05-16T20:12:26.406Z,12.86
2023-05-16T20:14:52.865Z,12.86
2023-05-16T20:17:19.302Z,12.78
2023-05-16T20:19:46.601Z,12.84
2023-05-16T20:22:13.130Z,12.76
2023-05-16T20:24:39.625Z,12.66
2023-05-16T20:27:06.082Z,12.63
2023-05-16T20:29:33.820Z,12.62
2023-05-16T20:32:00.652Z,12.64
2023-05-16T20:34:27.920Z,12.62
2023-05-16T20:36:54.408Z,12.50
2023-05-16T20:39:20.862Z,12.39
2023-05-16T20:41:47.342Z,12.45
2023-05-16T20:44:15.246Z,12.30
2023-05-16T20:46:43.069Z,12.11
2023-05-16T20:49:09.593Z,12.09
2023-05-16T20:51:36.274Z,12.02
2023-05-16T20:54:02.762Z,12.06
2023-05-16T20:56:29.549Z,11.92
2023-05-16T20:58:56.015Z,12.01
2023-05-16T21:01:22.460Z,11.90
2023-05-16T21:03:48.976Z,11.65
2023-05-16T21:06:15.467Z,11.82
2023-05-16T21:08:41.919Z,11.80
2023-05-16T21:11:08.415Z,11.82
2023-05-16T21:13:34.895Z,11.81
2023-05-16T21:16:01.422Z,11.88
2023-05-16T21:18:27.909Z,11.89
2023-05-16T21:20:54.406Z,11.79
2023-05-16T21:23:21.102Z,11.66
2023-05-16T21:25:47.593Z,11.71
2023-05-16T21:28:14.110Z,11.70
2023-05-16T21:30:40.602Z,11.64
2023-05-16T21:33:07.222Z,11.61
2023-05-16T21:35:33.895Z,11.60
2023-05-16T21:38:00.350Z,11.61
2023-05-16T21:40:28.742Z,11.48
2023-05-16T21:42:55.311Z,11.51
2023-05-16T21:45:21.898Z,11.52
2023-05-16T21:47:48.555Z,11.49
2023-05-16T21:50:15.095Z,11.47
2023-05-16T21:52:41.966Z,11.50
2023-05-16T21:55:08.897Z,11.59
2023-05-16T21:57:35.607Z,11.49
2023-05-16T22:00:06.592Z,11.43
2023-05-16T22:02:34.486Z,11.28
2023-05-16T22:05:01.293Z,11.29
2023-05-16T22:07:29.309Z,11.28
2023-05-16T22:09:56.399Z,11.25
2023-05-16T22:12:23.906Z,11.21
2023-05-16T22:14:50.952Z,11.16
2023-05-16T22:17:19.498Z,11.03
2023-05-16T22:19:46.185Z,11.02
2023-05-16T22:22:12.793Z,10.98
2023-05-16T22:24:39.227Z,10.86
2023-05-16T22:27:06.148Z,10.83
2023-05-16T22:29:37.907Z,10.79
2023-05-16T22:32:08.576Z,10.77
2023-05-16T22:34:35.946Z,10.68
2023-05-16T22:37:02.401Z,10.68
2023-05-16T22:39:28.857Z,10.67
2023-05-16T22:41:55.338Z,10.59
2023-05-16T22:44:21.810Z,10.56
2023-05-16T22:46:48.398Z,10.49
2023-05-16T22:49:14.932Z,10.56
2023-05-16T22:51:41.428Z,10.40
2023-05-16T22:54:07.879Z,10.45
2023-05-16T22:56:34.402Z,10.45
2023-05-16T22:59:01.056Z,10.41
2023-05-16T23:01:27.553Z,10.24
2023-05-16T23:03:54.072Z,10.16
2023-05-16T23:06:20.550Z,10.15
2023-05-16T23:08:47.019Z,10.13
2023-05-16T23:11:13.523Z,10.16
2023-05-16T23:13:39.986Z,10.12
2023-05-16T23:16:06.520Z,10.06
2023-05-16T23:18:33.079Z,10.18
2023-05-16T23:20:59.696Z,10.04
2023-05-16T23:23:26.171Z,9.96
2023-05-16T23:25:52.628Z,9.98
2023-05-16T23:28:19.640Z,9.88
2023-05-16T23:30:46.093Z,9.85
2023-05-16T23:33:14.107Z,9.81
2023-05-16T23:35:40.735Z,9.86
2023-05-16T23:38:07.202Z,9.66
2023-05-16T23:40:33.665Z,9.67
2023-05-16T23:43:00.136Z,9.83
2023-05-16T23:45:27.940Z,9.58
2023-05-16T23:47:54.600Z,9.71
2023-05-16T23:50:21.715Z,9.58
2023-05-16T23:52:48.190Z,9.53
2023-05-16T23:55:15.368Z,9.48
2023-05-16T23:57:42.323Z,9.55
